Time;durP1;ratioP1;P1;durP2;ratioP2;P2;SDS_P1;SDS_P2;PMS_P1;PMS_P2;Temp;Humidity;BMP_temperature;BMP_pressure;BME280_temperature;BME280_humidity;BME280_pressure;Samples;Min_cycle;Max_cycle;Signal;HPM_P1;HPM_P2
2023/01/04 00:03:25;;;;;;;52.17;30.33;;;3.60;99.90;;;;;;10411889;28;20333;-82
2023/01/04 00:08:28;;;;;;;53.60;30.73;;;3.50;99.90;;;;;;10418376;28;20235;-82
2023/01/04 00:13:31;;;;;;;52.30;30.23;;;3.50;99.90;;;;;;10418501;28;20244;-82
2023/01/04 00:18:35;;;;;;;46.67;29.43;;;3.20;99.90;;;;;;10395998;28;20262;-81
2023/01/04 00:23:39;;;;;;;47.67;28.97;;;2.90;99.90;;;;;;10428967;28;20260;-82
2023/01/04 00:28:42;;;;;;;51.97;30.67;;;2.90;99.90;;;;;;10410654;28;20655;-82
2023/01/04 00:33:58;;;;;;;43.43;27.43;;;3.10;99.90;;;;;;10397989;28;20774;-81
2023/01/04 00:39:08;;;;;;;50.60;27.80;;;2.80;99.90;;;;;;10392701;28;20637;-82
2023/01/04 00:44:12;;;;;;;44.50;27.30;;;3.00;99.90;;;;;;10410087;28;20252;-81
2023/01/04 00:49:15;;;;;;;43.63;27.17;;;2.80;99.90;;;;;;10420623;28;20236;-82
2023/01/04 00:54:18;;;;;;;42.10;26.83;;;3.00;99.90;;;;;;10392543;28;20245;-82
2023/01/04 00:59:21;;;;;;;40.17;25.67;;;3.10;99.90;;;;;;10409907;28;20293;-82
2023/01/04 01:04:24;;;;;;;41.27;25.30;;;3.30;99.90;;;;;;10418760;28;20251;-82
2023/01/04 01:09:27;;;;;;;42.90;27.17;;;3.00;99.90;;;;;;10409470;28;20277;-82
2023/01/04 01:14:29;;;;;;;39.60;27.33;;;3.00;99.90;;;;;;10393201;28;20660;-82
2023/01/04 01:19:33;;;;;;;42.77;25.00;;;2.90;99.90;;;;;;10450019;28;20234;-82
2023/01/04 01:24:35;;;;;;;41.53;26.73;;;2.90;99.90;;;;;;10411290;28;20249;-82
2023/01/04 01:29:38;;;;;;;40.70;26.60;;;2.90;99.90;;;;;;10411902;28;20280;-82
2023/01/04 01:34:40;;;;;;;43.07;25.10;;;2.70;99.90;;;;;;10435500;28;20899;-82
2023/01/04 01:39:43;;;;;;;41.60;26.67;;;2.80;99.90;;;;;;10408807;28;20238;-82
2023/01/04 01:44:53;;;;;;;35.83;22.70;;;2.80;99.90;;;;;;10407634;28;20320;-82
2023/01/04 01:49:56;;;;;;;30.53;18.73;;;3.10;99.90;;;;;;10407216;28;20284;-82
2023/01/04 01:55:01;;;;;;;36.20;24.07;;;4.10;99.90;;;;;;10407717;28;20630;-82
2023/01/04 02:00:08;;;;;;;38.13;23.57;;;4.40;99.90;;;;;;10407706;28;20321;-82
2023/01/04 02:05:19;;;;;;;44.53;23.73;;;4.20;99.90;;;;;;10408460;28;20274;-82
2023/01/04 02:10:23;;;;;;;42.27;25.53;;;4.50;99.90;;;;;;10419070;28;20234;-82
2023/01/04 02:15:33;;;;;;;39.97;23.20;;;3.70;99.90;;;;;;10449499;28;20238;-82
2023/01/04 02:20:41;;;;;;;38.83;24.53;;;3.80;99.90;;;;;;10448247;28;20234;-82
2023/01/04 02:26:02;;;;;;;24.33;15.33;;;4.30;99.90;;;;;;10417501;28;20775;-82
2023/01/04 02:31:17;;;;;;;35.73;21.53;;;4.40;99.90;;;;;;10407558;28;20219;-82
2023/01/04 02:36:38;;;;;;;36.97;23.20;;;5.30;99.90;;;;;;10406136;28;20243;-82
2023/01/04 02:41:59;;;;;;;29.23;18.23;;;5.70;99.90;;;;;;10407575;28;20283;-82
2023/01/04 02:47:13;;;;;;;36.20;23.87;;;5.00;99.90;;;;;;10407453;28;20924;-82
2023/01/04 02:52:16;;;;;;;40.03;24.63;;;4.50;99.90;;;;;;10405728;28;20214;-82
2023/01/04 02:57:19;;;;;;;40.50;24.27;;;3.90;99.90;;;;;;10406654;28;20700;-82
2023/01/04 03:08:36;;;;;;;39.93;24.63;;;4.50;99.90;;;;;;10407339;28;20250;-82
2023/01/04 03:13:44;;;;;;;39.03;22.73;;;5.10;99.90;;;;;;10413968;28;20238;-82
2023/01/04 03:18:51;;;;;;;37.87;20.93;;;5.20;99.90;;;;;;10413455;28;20261;-82
2023/01/04 03:51:17;;;;;;;44.87;29.07;;;5.80;99.90;;;;;;10414764;28;20624;-81
2023/01/04 03:56:22;;;;;;;35.93;22.67;;;6.30;99.90;;;;;;10453868;28;20290;-82
2023/01/04 04:01:26;;;;;;;36.53;24.00;;;6.10;99.90;;;;;;10453170;28;20300;-82
2023/01/04 04:11:50;;;;;;;36.70;24.07;;;5.80;99.90;;;;;;10412044;28;20730;-81
2023/01/04 04:16:52;;;;;;;41.90;27.80;;;6.10;99.90;;;;;;10411368;28;20301;-81
2023/01/04 04:21:55;;;;;;;31.57;22.67;;;5.70;99.90;;;;;;10411764;28;20245;-82
2023/01/04 04:26:57;;;;;;;35.00;22.97;;;5.70;99.90;;;;;;10411635;28;20259;-82
2023/01/04 04:32:00;;;;;;;42.20;26.43;;;5.70;99.90;;;;;;10410684;28;20232;-82
2023/01/04 04:37:02;;;;;;;37.80;24.70;;;5.90;99.90;;;;;;10411349;28;20916;-82
2023/01/04 04:42:05;;;;;;;32.87;23.00;;;5.40;99.90;;;;;;10393000;28;20242;-82
2023/01/04 04:47:07;;;;;;;31.60;21.07;;;5.20;99.90;;;;;;10393530;28;20243;-82
2023/01/04 04:52:10;;;;;;;31.77;19.63;;;4.60;99.90;;;;;;10451906;28;20230;-82
2023/01/04 04:57:13;;;;;;;33.47;21.73;;;4.90;99.90;;;;;;10410622;28;20265;-82
2023/01/04 05:02:15;;;;;;;35.40;21.67;;;4.80;99.90;;;;;;10407109;28;20232;-82
2023/01/04 05:07:18;;;;;;;38.17;23.17;;;4.80;99.90;;;;;;10451157;28;20643;-82
2023/01/04 05:17:42;;;;;;;33.23;22.13;;;4.40;99.90;;;;;;10418147;28;20306;-82
2023/01/04 05:22:44;;;;;;;30.73;20.07;;;4.40;99.90;;;;;;10391365;28;20707;-82
2023/01/04 05:27:47;;;;;;;30.77;20.63;;;4.20;99.90;;;;;;10391755;28;20252;-82
2023/01/04 05:32:50;;;;;;;31.73;21.07;;;4.00;99.90;;;;;;10407586;28;20695;-82
2023/01/04 05:37:52;;;;;;;28.90;18.73;;;3.80;99.90;;;;;;10390244;28;20263;-82
2023/01/04 05:42:55;;;;;;;31.03;20.63;;;3.80;99.90;;;;;;10408878;28;20758;-82
2023/01/04 05:47:58;;;;;;;29.93;18.97;;;4.10;99.90;;;;;;10409018;28;20717;-82
2023/01/04 05:53:01;;;;;;;22.37;15.80;;;;;;;;;;10408445;28;20298;-82
2023/01/04 05:58:03;;;;;;;28.93;19.17;;;4.20;99.90;;;;;;10389917;28;20764;-82
2023/01/04 06:03:06;;;;;;;26.53;19.07;;;4.20;99.90;;;;;;10408538;28;20613;-82
2023/01/04 06:08:09;;;;;;;27.57;19.40;;;4.10;99.90;;;;;;10393076;28;20836;-81
2023/01/04 06:13:11;;;;;;;26.47;18.50;;;4.10;99.90;;;;;;10409060;28;20238;-82
2023/01/04 06:18:14;;;;;;;25.83;18.43;;;4.30;99.90;;;;;;10410170;28;20228;-82
2023/01/04 06:23:16;;;;;;;32.03;18.30;;;4.50;99.90;;;;;;10437168;28;20323;-81
2023/01/04 06:28:19;;;;;;;29.03;17.83;;;4.30;99.90;;;;;;10415924;28;20285;-81
2023/01/04 06:33:21;;;;;;;25.77;18.10;;;4.20;99.90;;;;;;10407170;28;20635;-81
2023/01/04 06:38:24;;;;;;;35.30;24.77;;;;;;;;;;10390772;28;20229;-81
2023/01/04 06:43:27;;;;;;;24.63;16.90;;;2.70;99.90;;;;;;10427924;28;20233;-89
2023/01/04 06:48:30;;;;;;;27.00;18.17;;;5.50;99.90;;;;;;10435074;28;20290;-89
2023/01/04 06:53:33;;;;;;;34.40;20.00;;;;;;;;;;10391152;28;20220;-89
2023/01/04 06:58:36;;;;;;;24.80;18.23;;;5.40;99.90;;;;;;10374264;28;20717;-89
2023/01/04 07:03:38;;;;;;;26.57;18.23;;;4.80;99.90;;;;;;10383050;28;20291;-89
2023/01/04 07:08:41;;;;;;;27.67;18.30;;;4.50;99.90;;;;;;10398403;28;20246;-89
2023/01/04 07:13:43;;;;;;;33.80;22.03;;;4.50;99.90;;;;;;10394692;28;20294;-89
2023/01/04 07:18:46;;;;;;;34.83;24.40;;;4.10;99.90;;;;;;10375449;28;20243;-89
2023/01/04 07:23:49;;;;;;;35.27;23.93;;;4.00;99.90;;;;;;10405144;28;20318;-89
2023/01/04 07:34:15;;;;;;;30.50;17.57;;;4.00;99.90;;;;;;10417065;28;20204;-88
2023/01/04 07:39:19;;;;;;;26.37;17.30;;;4.30;99.90;;;;;;10415012;28;20230;-88
2023/01/04 07:44:24;;;;;;;26.47;16.60;;;4.40;99.90;;;;;;10457782;28;20618;-88
2023/01/04 07:49:26;;;;;;;23.70;14.83;;;4.40;99.90;;;;;;10419149;28;20550;-89
2023/01/04 07:54:29;;;;;;;20.37;14.27;;;4.40;99.90;;;;;;10415183;28;20913;-89
2023/01/04 07:59:32;;;;;;;22.67;14.57;;;4.90;99.90;;;;;;10376715;28;20232;-89
2023/01/04 08:04:34;;;;;;;18.83;13.73;;;5.00;99.90;;;;;;10375463;28;20216;-88
2023/01/04 08:09:37;;;;;;;23.37;13.13;;;5.00;99.90;;;;;;10388509;28;20579;-88
2023/01/04 08:14:39;;;;;;;21.63;13.50;;;5.20;99.90;;;;;;10363850;28;20208;-88
2023/01/04 08:19:42;;;;;;;18.47;13.40;;;5.40;99.90;;;;;;10406114;28;20211;-88
2023/01/04 08:24:45;;;;;;;20.67;13.33;;;5.50;99.90;;;;;;10404728;28;20622;-88
2023/01/04 08:29:48;;;;;;;19.20;12.23;;;5.70;99.90;;;;;;10398587;28;20278;-87
2023/01/04 08:34:52;;;;;;;16.50;10.30;;;5.90;99.90;;;;;;10396636;28;20258;-87
2023/01/04 08:39:54;;;;;;;15.90;10.30;;;5.90;99.90;;;;;;10396307;28;20282;-87
2023/01/04 08:45:00;;;;;;;18.20;12.17;;;6.00;99.90;;;;;;10416617;28;20747;-86
2023/01/04 08:50:03;;;;;;;15.27;10.53;;;6.30;99.90;;;;;;10396846;28;20191;-87
2023/01/04 08:55:12;;;;;;;17.20;10.30;;;6.30;99.90;;;;;;10413294;28;20562;-87
2023/01/04 09:00:20;;;;;;;14.03;8.03;;;6.10;99.90;;;;;;10414683;28;20267;-87
2023/01/04 09:05:24;;;;;;;15.40;9.23;;;6.00;99.90;;;;;;10412730;28;20232;-87
2023/01/04 09:10:27;;;;;;;18.80;11.70;;;6.30;99.90;;;;;;10410841;28;20207;-87
2023/01/04 09:15:33;;;;;;;17.37;11.00;;;6.60;99.90;;;;;;10397433;28;20204;-87
2023/01/04 09:20:37;;;;;;;19.10;12.30;;;6.60;99.90;;;;;;10354844;28;20243;-87
2023/01/04 09:25:39;;;;;;;17.80;10.37;;;6.30;99.90;;;;;;10411170;28;20645;-87
2023/01/04 09:30:42;;;;;;;14.13;9.23;;;6.20;99.90;;;;;;10391845;28;20586;-87
2023/01/04 09:35:45;;;;;;;12.87;8.93;;;6.40;99.90;;;;;;10408562;28;20627;-88
2023/01/04 09:41:01;;;;;;;12.20;8.90;;;6.60;99.90;;;;;;10399154;28;20763;-87
2023/01/04 09:46:08;;;;;;;14.50;9.53;;;6.70;99.90;;;;;;10369972;28;20646;-87
2023/01/04 09:51:16;;;;;;;15.60;9.70;;;6.70;99.90;;;;;;10404490;28;20220;-87
2023/01/04 09:56:30;;;;;;;13.83;9.07;;;6.60;99.90;;;;;;10400869;28;20239;-87
2023/01/04 10:01:58;;;;;;;15.83;9.10;;;6.80;99.90;;;;;;10427156;28;20688;-88
2023/01/04 10:07:01;;;;;;;13.77;8.60;;;6.70;99.90;;;;;;10489766;28;20268;-88
2023/01/04 10:12:42;;;;;;;14.87;9.33;;;7.60;99.90;;;;;;10446169;28;20245;-88
2023/01/04 10:18:21;;;;;;;13.83;8.23;;;8.50;99.90;;;;;;10458499;28;20193;-88
2023/01/04 10:24:09;;;;;;;13.83;8.30;;;9.50;99.90;;;;;;10470738;28;20218;-88
2023/01/04 10:29:27;;;;;;;14.97;10.37;;;10.00;99.90;;;;;;10469780;28;20453;-89
2023/01/04 10:34:37;;;;;;;14.50;9.30;;;9.40;97.50;;;;;;10470033;28;20191;-87
2023/01/04 10:39:41;;;;;;;17.03;10.43;;;8.30;99.90;;;;;;10453802;28;20179;-88
2023/01/04 10:45:05;;;;;;;16.50;10.20;;;7.80;99.90;;;;;;10469242;28;20237;-88
2023/01/04 10:50:18;;;;;;;16.50;10.93;;;7.40;99.90;;;;;;10453636;28;20187;-88
2023/01/04 10:55:43;;;;;;;19.60;11.60;;;7.20;99.90;;;;;;10469557;28;20191;-89
2023/01/04 11:01:22;;;;;;;16.17;10.60;;;7.30;99.90;;;;;;10467210;28;20205;-88
2023/01/04 11:06:34;;;;;;;13.77;9.47;;;7.30;99.90;;;;;;10427633;28;20212;-88
2023/01/04 11:11:42;;;;;;;14.93;9.93;;;7.50;99.90;;;;;;10403786;28;20196;-89
2023/01/04 11:16:50;;;;;;;14.47;9.83;;;7.50;99.90;;;;;;10427777;28;20177;-88
2023/01/04 11:22:19;;;;;;;12.77;9.10;;;7.60;99.90;;;;;;10427625;28;20180;-89
2023/01/04 11:27:27;;;;;;;11.57;9.00;;;8.20;99.90;;;;;;10410380;28;20239;-89
2023/01/04 11:32:43;;;;;;;11.57;7.93;;;8.40;99.90;;;;;;10413929;28;20228;-90
2023/01/04 11:37:46;;;;;;;14.47;8.13;;;9.00;99.90;;;;;;10395184;28;20185;-90
2023/01/04 11:43:13;;;;;;;10.93;7.60;;;9.90;99.90;;;;;;10409212;28;20214;-90
2023/01/04 11:48:15;;;;;;;10.93;7.80;;;10.10;99.90;;;;;;10386675;28;20239;-90
2023/01/04 11:53:27;;;;;;;16.37;9.37;;;10.60;99.90;;;;;;10426806;28;20207;-90
2023/01/04 11:58:30;;;;;;;20.40;11.50;;;10.10;99.90;;;;;;10466513;28;20211;-89
2023/01/04 12:03:37;;;;;;;16.97;9.67;;;10.30;99.90;;;;;;10426821;28;20188;-90
2023/01/04 12:08:41;;;;;;;12.23;8.47;;;10.00;99.90;;;;;;10425150;28;20208;-89
2023/01/04 12:13:44;;;;;;;11.20;8.27;;;9.70;99.90;;;;;;10409101;28;20177;-90
2023/01/04 12:18:47;;;;;;;10.73;7.67;;;9.40;99.90;;;;;;10425559;28;20192;-90
2023/01/04 12:23:52;;;;;;;10.60;7.57;;;9.50;99.90;;;;;;10426438;28;20185;-90
2023/01/04 12:29:22;;;;;;;12.10;8.63;;;8.90;99.90;;;;;;10412353;28;20220;-90
2023/01/04 12:34:26;;;;;;;9.17;7.30;;;8.30;99.90;;;;;;10427110;28;20189;-90
2023/01/04 12:39:46;;;;;;;9.67;6.80;;;7.90;99.90;;;;;;10423926;28;20188;-90
2023/01/04 12:44:50;;;;;;;10.07;7.17;;;7.50;99.90;;;;;;10409390;28;20196;-89
2023/01/04 12:49:56;;;;;;;17.40;10.00;;;7.50;99.90;;;;;;10426495;28;20180;-89
2023/01/04 12:55:01;;;;;;;11.00;7.83;;;7.50;99.90;;;;;;10426572;28;20188;-90
2023/01/04 13:00:15;;;;;;;13.83;8.77;;;7.40;99.90;;;;;;10425447;28;20251;-90
2023/01/04 13:05:18;;;;;;;14.23;9.57;;;7.50;99.90;;;;;;10410028;28;20216;-89
2023/01/04 13:10:47;;;;;;;12.97;8.10;;;8.30;99.90;;;;;;10412144;28;20192;-89
2023/01/04 13:16:23;;;;;;;20.30;9.63;;;7.90;99.90;;;;;;10409045;28;20185;-90
2023/01/04 13:21:33;;;;;;;10.73;7.60;;;8.20;99.90;;;;;;10419914;28;20188;-89
2023/01/04 13:26:41;;;;;;;12.27;8.07;;;8.20;99.90;;;;;;10425973;28;20212;-89
2023/01/04 13:32:05;;;;;;;15.60;7.10;;;8.30;99.90;;;;;;10392918;28;20223;-90
2023/01/04 13:37:12;;;;;;;10.10;7.00;;;9.60;99.90;;;;;;10393150;28;20200;-90
2023/01/04 13:42:26;;;;;;;10.50;6.90;;;9.40;99.90;;;;;;10403484;28;20251;-90
2023/01/04 13:47:32;;;;;;;9.00;5.93;;;10.20;99.90;;;;;;10408735;28;20224;-91
2023/01/04 13:52:35;;;;;;;11.17;7.20;;;10.00;99.90;;;;;;10424152;28;20207;-89
2023/01/04 13:58:03;;;;;;;19.97;7.37;;;10.60;99.90;;;;;;10409652;28;20256;-90
2023/01/04 14:03:09;;;;;;;11.93;6.47;;;9.10;99.90;;;;;;10402665;28;20176;-91
2023/01/04 14:08:21;;;;;;;12.47;9.33;;;11.30;99.90;;;;;;10367620;28;20216;-91
2023/01/04 14:13:24;;;;;;;12.33;7.70;;;;;;;;;;10387081;28;20172;-91
2023/01/04 14:18:29;;;;;;;14.43;9.23;;;8.60;99.90;;;;;;10440447;28;20210;-90
2023/01/04 14:23:37;;;;;;;13.50;8.17;;;9.50;99.90;;;;;;10426642;28;20200;-91
2023/01/04 14:28:42;;;;;;;18.30;12.20;;;10.00;99.90;;;;;;10424539;28;20256;-89
2023/01/04 14:33:52;;;;;;;19.50;12.33;;;8.00;99.90;;;;;;10378044;28;20205;-90
2023/01/04 14:39:08;;;;;;;19.00;12.47;;;6.80;99.90;;;;;;10389568;28;20201;-90
2023/01/04 14:44:11;;;;;;;21.30;13.43;;;;;;;;;;10365299;28;20250;-90
2023/01/04 14:49:14;;;;;;;11.83;6.13;;;6.20;99.90;;;;;;10356321;28;20216;-89
2023/01/04 14:54:17;;;;;;;9.60;6.37;;;7.20;99.90;;;;;;10387043;28;20542;-90
2023/01/04 14:59:27;;;;;;;8.50;4.73;;;8.40;99.90;;;;;;10389155;28;20639;-89
2023/01/04 15:04:30;;;;;;;7.60;5.20;;;9.80;99.90;;;;;;10386095;28;20216;-89
2023/01/04 15:09:32;;;;;;;8.07;6.03;;;11.10;99.90;;;;;;10382475;28;20283;-90
2023/01/04 15:14:35;;;;;;;6.73;4.50;;;10.30;99.90;;;;;;10387072;28;20204;-90
2023/01/04 15:19:38;;;;;;;10.23;5.83;;;10.90;99.90;;;;;;10392941;28;20556;-89
2023/01/04 15:24:40;;;;;;;8.73;5.13;;;12.20;99.90;;;;;;10373398;28;20208;-90
2023/01/04 15:29:43;;;;;;;12.33;5.80;;;11.60;99.90;;;;;;10374576;28;20274;-90
2023/01/04 15:34:48;;;;;;;9.27;4.60;;;11.20;99.90;;;;;;10398173;28;20212;-90
2023/01/04 15:39:55;;;;;;;9.83;5.97;;;11.40;99.90;;;;;;10381059;28;20615;-90
2023/01/04 15:45:04;;;;;;;6.77;4.73;;;11.80;99.90;;;;;;10402236;28;20545;-90
2023/01/04 15:50:07;;;;;;;7.43;3.93;;;12.50;99.90;;;;;;10395674;28;20223;-90
2023/01/04 15:55:11;;;;;;;9.43;4.87;;;13.10;99.90;;;;;;10372327;28;20234;-90
2023/01/04 16:00:14;;;;;;;6.80;2.87;;;13.10;99.90;;;;;;10390451;28;20386;-90
2023/01/04 16:05:19;;;;;;;6.97;4.30;;;13.40;99.90;;;;;;10333863;28;20216;-90
2023/01/04 16:10:22;;;;;;;5.80;1.90;;;13.70;99.90;;;;;;10384807;28;20226;-90
2023/01/04 16:15:24;;;;;;;3.70;3.00;;;14.10;99.90;;;;;;10371517;28;20240;-91
2023/01/04 16:20:27;;;;;;;6.83;2.73;;;13.80;99.90;;;;;;10387247;28;20205;-95
2023/01/04 16:25:29;;;;;;;10.00;5.40;;;14.00;99.90;;;;;;10387924;28;20205;-95
2023/01/04 16:36:14;;;;;;;5.87;3.60;;;13.90;99.90;;;;;;10673856;24;20298;-83
2023/01/04 16:41:23;;;;;;;7.80;4.80;;;14.20;99.90;;;;;;10086169;23;20737;-82
2023/01/04 16:46:30;;;;;;;6.47;4.23;;;13.70;99.90;;;;;;10043007;29;20313;-82
2023/01/04 16:51:34;;;;;;;6.00;4.43;;;14.30;99.90;;;;;;10071204;24;20748;-82
2023/01/04 16:56:38;;;;;;;8.70;3.63;;;13.90;99.90;;;;;;10016029;29;20294;-82
2023/01/04 17:01:40;;;;;;;5.83;3.77;;;14.20;99.90;;;;;;10015690;29;20295;-82
2023/01/04 17:06:56;;;;;;;5.03;4.53;;;14.50;99.90;;;;;;10016050;29;20258;-82
2023/01/04 17:12:00;;;;;;;7.00;3.37;;;14.20;99.90;;;;;;10060441;23;20268;-82
2023/01/04 17:17:23;;;;;;;5.80;3.93;;;14.30;99.90;;;;;;10022256;29;20226;-83
2023/01/04 17:22:25;;;;;;;3.70;2.97;;;14.30;99.90;;;;;;10062149;29;20965;-83
2023/01/04 17:27:35;;;;;;;7.23;4.50;;;14.40;99.90;;;;;;10067293;29;20313;-83
2023/01/04 17:32:38;;;;;;;6.63;4.47;;;14.40;99.90;;;;;;10068213;29;20694;-83
2023/01/04 17:37:40;;;;;;;6.83;4.90;;;13.60;99.90;;;;;;10053056;29;20915;-83
2023/01/04 17:42:43;;;;;;;5.27;3.93;;;13.80;99.90;;;;;;9715950;29;9999695;-82
2023/01/04 17:47:47;;;;;;;5.23;3.27;;;13.90;99.90;;;;;;10087378;29;20261;-83
2023/01/04 17:52:50;;;;;;;6.20;4.40;;;14.00;99.90;;;;;;10136108;24;20265;-83
2023/01/04 17:57:52;;;;;;;7.23;4.97;;;13.80;99.90;;;;;;10110447;29;20631;-83
2023/01/04 18:02:55;;;;;;;3.63;2.47;;;14.20;99.90;;;;;;10121679;29;20240;-84
2023/01/04 18:07:57;;;;;;;6.43;4.40;;;14.10;99.90;;;;;;10096791;29;20264;-81
2023/01/04 18:13:00;;;;;;;6.67;5.10;;;14.40;99.90;;;;;;10117653;29;20683;-82
2023/01/04 18:18:02;;;;;;;8.23;5.27;;;13.90;99.90;;;;;;10086787;29;20240;-84
2023/01/04 18:23:05;;;;;;;6.17;4.43;;;14.20;99.90;;;;;;10153214;29;20687;-83
2023/01/04 18:28:07;;;;;;;10.57;4.83;;;14.10;99.90;;;;;;10145743;29;20766;-83
2023/01/04 18:33:10;;;;;;;6.30;4.77;;;14.20;99.90;;;;;;10072669;29;20295;-83
2023/01/04 18:38:12;;;;;;;7.47;5.07;;;14.10;99.90;;;;;;10114783;29;20280;-83
2023/01/04 18:43:15;;;;;;;5.90;4.67;;;14.30;99.90;;;;;;10107323;29;20237;-83
2023/01/04 18:48:17;;;;;;;4.63;2.97;;;14.30;99.90;;;;;;10094161;29;20314;-83
2023/01/04 18:53:20;;;;;;;9.50;5.70;;;14.40;99.90;;;;;;10123798;29;20313;-82
2023/01/04 18:58:23;;;;;;;7.37;5.57;;;14.30;99.90;;;;;;10102578;29;20745;-83
2023/01/04 19:03:25;;;;;;;4.63;3.50;;;14.20;99.90;;;;;;10093939;29;20775;-83
2023/01/04 19:08:28;;;;;;;3.10;2.23;;;14.00;99.90;;;;;;10128353;29;20303;-84
2023/01/04 19:13:31;;;;;;;3.57;2.50;;;13.90;99.90;;;;;;10108476;29;20692;-83
2023/01/04 19:18:33;;;;;;;3.53;2.80;;;15.00;99.90;;;;;;10106186;29;20240;-84
2023/01/04 19:23:37;;;;;;;4.63;3.53;;;14.40;99.90;;;;;;10131883;29;20820;-83
2023/01/04 19:28:39;;;;;;;5.43;3.83;;;14.50;99.90;;;;;;10110260;29;20771;-83
2023/01/04 19:33:42;;;;;;;6.63;4.70;;;14.40;99.90;;;;;;10103661;29;20225;-83
2023/01/04 19:38:45;;;;;;;5.83;3.77;;;14.20;99.90;;;;;;10096252;29;20291;-84
2023/01/04 19:43:49;;;;;;;6.23;4.10;;;14.50;99.90;;;;;;10106615;29;20248;-82
2023/01/04 19:48:51;;;;;;;7.97;3.90;;;14.10;99.90;;;;;;10130439;29;20327;-82
2023/01/04 19:53:54;;;;;;;5.53;4.43;;;14.80;99.90;;;;;;10101786;29;21031;-82
2023/01/04 19:58:56;;;;;;;6.30;4.30;;;14.10;99.90;;;;;;10094604;29;20241;-83
2023/01/04 20:03:59;;;;;;;5.97;4.13;;;14.40;99.90;;;;;;10124586;29;20296;-82
2023/01/04 20:09:02;;;;;;;5.27;4.43;;;14.60;99.90;;;;;;10088607;29;20297;-83
2023/01/04 20:14:04;;;;;;;6.40;2.80;;;14.10;99.90;;;;;;10117599;29;20292;-82
2023/01/04 20:19:07;;;;;;;4.80;3.57;;;14.20;99.90;;;;;;10090137;29;20243;-82
2023/01/04 20:24:10;;;;;;;7.97;4.40;;;;;;;;;;10095068;29;20276;-84
2023/01/04 20:29:12;;;;;;;4.70;4.03;;;14.90;99.90;;;;;;10105036;29;20728;-85
2023/01/04 20:34:15;;;;;;;6.00;4.13;;;14.30;99.90;;;;;;10094174;29;20235;-84
2023/01/04 20:39:17;;;;;;;5.23;2.93;;;14.50;99.90;;;;;;10088790;23;20262;-84
2023/01/04 20:44:21;;;;;;;5.63;3.90;;;14.80;99.90;;;;;;10022326;29;20245;-84
2023/01/04 20:49:24;;;;;;;1.30;1.00;;;14.50;99.90;;;;;;10052875;29;20265;-84
2023/01/04 20:54:26;;;;;;;5.10;3.27;;;14.80;99.90;;;;;;10053905;29;20710;-84
2023/01/04 20:59:29;;;;;;;5.30;3.77;;;15.00;99.90;;;;;;10066280;29;20264;-83
2023/01/04 21:04:31;;;;;;;6.07;3.50;;;15.20;99.90;;;;;;10051723;29;20245;-84
2023/01/04 21:09:34;;;;;;;6.53;3.97;;;15.00;99.90;;;;;;10047364;29;20269;-83
2023/01/04 21:14:37;;;;;;;5.27;3.67;;;14.70;99.90;;;;;;10051652;29;20271;-84
2023/01/04 21:19:39;;;;;;;5.43;3.37;;;14.70;99.90;;;;;;10053102;29;20302;-84
2023/01/04 21:24:43;;;;;;;5.73;3.70;;;14.70;99.90;;;;;;10035804;29;20316;-84
2023/01/04 21:29:45;;;;;;;5.40;3.90;;;14.60;99.90;;;;;;10028625;29;20736;-83
2023/01/04 21:34:48;;;;;;;9.13;5.70;;;14.80;99.90;;;;;;10052482;29;20233;-88
2023/01/04 21:39:50;;;;;;;5.53;2.80;;;14.30;99.90;;;;;;10060819;29;20210;-90
2023/01/04 21:44:53;;;;;;;5.10;3.93;;;14.40;99.90;;;;;;10053148;29;20266;-90
2023/01/04 21:49:56;;;;;;;6.53;3.20;;;14.60;99.90;;;;;;10029725;29;20711;-90
2023/01/04 21:54:58;;;;;;;4.93;3.83;;;14.60;99.90;;;;;;10069722;29;20239;-89
2023/01/04 22:00:03;;;;;;;5.27;3.47;;;14.40;99.90;;;;;;10079255;29;20242;-83
2023/01/04 22:05:07;;;;;;;3.47;2.90;;;14.20;99.90;;;;;;10084719;29;20311;-87
2023/01/04 22:10:09;;;;;;;5.10;3.70;;;14.40;99.90;;;;;;10086863;29;20260;-87
2023/01/04 22:15:12;;;;;;;5.17;2.80;;;14.20;99.90;;;;;;10074557;29;20277;-83
2023/01/04 22:20:15;;;;;;;4.30;3.30;;;14.40;99.90;;;;;;10078465;29;20269;-84
2023/01/04 22:25:20;;;;;;;4.30;3.00;;;14.20;99.90;;;;;;10081994;29;20243;-88
2023/01/04 22:30:29;;;;;;;4.83;3.00;;;13.80;99.90;;;;;;10086155;29;20257;-84
2023/01/04 22:35:32;;;;;;;5.57;3.27;;;13.80;99.90;;;;;;10065662;29;20319;-84
2023/01/04 22:40:37;;;;;;;4.00;2.53;;;14.10;99.90;;;;;;10060855;29;20244;-83
2023/01/04 22:45:40;;;;;;;5.50;3.93;;;13.90;99.90;;;;;;10065148;29;20272;-86
2023/01/04 22:50:42;;;;;;;3.77;2.60;;;13.50;99.90;;;;;;10051686;29;20274;-87
2023/01/04 22:55:44;;;;;;;6.27;2.80;;;14.40;99.90;;;;;;10051381;29;20233;-90
2023/01/04 23:01:08;;;;;;;2.50;1.80;;;13.60;99.90;;;;;;10050845;29;20297;-88
2023/01/04 23:06:11;;;;;;;3.97;2.60;;;13.20;99.90;;;;;;10034859;29;20679;-86
2023/01/04 23:11:16;;;;;;;6.13;2.07;;;14.60;99.90;;;;;;10048070;29;20263;-84
2023/01/04 23:16:20;;;;;;;2.13;1.53;;;15.40;99.90;;;;;;10074042;29;20284;-84
2023/01/04 23:28:36;;;;;;;4.10;1.73;;;15.70;99.90;;;;;;9804732;30;21085;-84
2023/01/04 23:33:39;;;;;;;3.10;1.50;;;15.70;99.90;;;;;;9808323;30;20295;-85
2023/01/04 23:38:42;;;;;;;5.53;2.07;;;15.30;99.90;;;;;;9795021;30;20264;-84
2023/01/04 23:43:44;;;;;;;2.07;1.57;;;15.40;99.90;;;;;;9792374;30;20278;-85
2023/01/04 23:48:47;;;;;;;4.70;2.00;;;15.20;99.90;;;;;;9754623;30;20321;-85
2023/01/04 23:53:49;;;;;;;3.67;1.93;;;15.40;99.90;;;;;;9754516;30;20247;-84
2023/01/04 23:58:52;;;;;;;2.00;1.47;;;15.40;99.90;;;;;;9789142;30;20705;-85
